• Join FlightAware (Why Join?)
  • Login
  • US Flag 
03:04PM EDT


 

Airport Tracker/Info


-or-


 

Live Flight TrackerFlight Track Log ✈ AMF1324 ✈ 21-Mar-2014 ✈ KBUF - KBGM

Flight Track Log - Related Links

Times and Time Zones

All times are in EDT time to prevent confusion due to time zone crossing. See the AMF1324 flight status page for this flight to view local times or setup timezone preferences in your user account.

Time Position Orientation Groundspeed Altitude Reporting Facility
EDT Latitude Longitude Course Direction KTS MPH feet Rate Location/Type
06:35AM 42.9333 -78.7333 180° South 117 135 1,300  Level Buffalo TRACON
06:35AM 42.9167 -78.7333 185° South 158 182 2,600 2,160 Climbing Buffalo TRACON
06:38AM 42.8942 -78.5800 101° East 205 236 7,400 2,040 Climbing Cleveland Center
06:39AM 42.8811 -78.4944 102° East 220 253 9,400 1,800 Climbing Cleveland Center
06:40AM 42.8678 -78.4106 102° East 222 255 11,100 1,380 Climbing Cleveland Center
06:41AM 42.8567 -78.3239 100° East 232 267 12,300 960 Climbing Cleveland Center
06:42AM 42.8447 -78.2289 100° East 248 285 13,100 360 Climbing Cleveland Center
06:43AM 42.8358 -78.1231 96° East 279 321 13,100  Level Cleveland Center
06:44AM 42.8278 -78.0128 96° East 289 333 13,100  Level Cleveland Center
06:45AM 42.8222 -77.9014 94° East 292 336 13,100 -60 Level Cleveland Center
06:46AM 42.8217 -77.7892 90° East 295 339 13,000 -60 Descending Cleveland Center
06:47AM 42.8156 -77.6800 94° East 302 348 13,000  Level Cleveland Center
06:48AM 42.7733 -77.5806 120° Southeast 302 348 13,000  Level Cleveland Center
06:49AM 42.7311 -77.4806 120° Southeast 302 348 13,000  Level Cleveland Center
06:50AM 42.6892 -77.3800 120° Southeast 302 348 13,000 -60 Level Cleveland Center
06:51AM 42.6472 -77.2814 120° Southeast 302 348 12,900 -120 Descending Cleveland Center
06:52AM 42.5989 -77.1619 119° Southeast 301 346 12,800 -420 Descending Cleveland Center
06:53AM 42.5544 -77.0581 120° Southeast 308 354 12,100 -840 Descending Cleveland Center
06:54AM 42.5100 -76.9525 120° Southeast 317 365 11,100 -960 Descending Cleveland Center
06:55AM 42.4650 -76.8447 119° Southeast 325 374 10,200 -720 Descending Cleveland Center
06:56AM 42.4211 -76.7392 119° Southeast 325 374 9,700 -540 Descending Cleveland Center
06:57AM 42.3842 -76.6369 116° Southeast 311 358 9,200 -780 Descending Cleveland Center
06:58AM 42.3603 -76.5261 106° East 310 357 8,200 -1,020 Descending Cleveland Center
06:59AM 42.3339 -76.4200 109° East 304 350 7,200 -1,080 Descending Cleveland Center
07:00AM 42.3053 -76.2981 108° East 293 337 6,000 -1,380 Descending Cleveland Center
07:01AM 42.2853 -76.2225 110° East 287 330 4,600 -1,200 Descending New York Center
07:02AM 42.2625 -76.1336 109° East 269 310 3,700 -600 Descending New York Center
07:03AM 42.2308 -76.0442 116° Southeast 240 276 3,500 -480 Descending New York Center
07:04AM 42.1989 -76.0192 150° Southeast 210 242 2,800 -420 Descending New York Center
07:05AM 42.1625 -75.9942 153° Southeast 169 194 2,700 -240 Descending New York Center
07:06AM 42.1647 -75.9439 87° East 151 174 2,400 -300 Descending New York Center